sensor_id;sensor_type;location;lat;lon;timestamp;temperature;humidity
36856;DHT22;22788;51.434;6.786;2022-07-29T08:32:04;19.40;70.90
36856;DHT22;22788;51.434;6.786;2022-07-29T08:34:30;19.60;71.40
36856;DHT22;22788;51.434;6.786;2022-07-29T08:36:58;19.60;71.80
36856;DHT22;22788;51.434;6.786;2022-07-29T08:39:24;19.50;71.50
36856;DHT22;22788;51.434;6.786;2022-07-29T08:41:51;19.60;71.50
36856;DHT22;22788;51.434;6.786;2022-07-29T08:44:17;19.60;71.70
36856;DHT22;22788;51.434;6.786;2022-07-29T08:46:44;19.60;71.40
36856;DHT22;22788;51.434;6.786;2022-07-29T08:49:10;19.60;72.40
36856;DHT22;22788;51.434;6.786;2022-07-29T08:51:39;19.60;71.90
36856;DHT22;22788;51.434;6.786;2022-07-29T08:54:08;19.60;72.40
36856;DHT22;22788;51.434;6.786;2022-07-29T08:56:35;19.60;71.70
36856;DHT22;22788;51.434;6.786;2022-07-29T08:59:03;19.70;71.70
36856;DHT22;22788;51.434;6.786;2022-07-29T09:01:31;19.70;73.00
36856;DHT22;22788;51.434;6.786;2022-07-29T09:03:59;19.70;73.10
36856;DHT22;22788;51.434;6.786;2022-07-29T09:06:26;19.70;73.20
36856;DHT22;22788;51.434;6.786;2022-07-29T09:08:59;19.70;73.70
36856;DHT22;22788;51.434;6.786;2022-07-29T09:11:26;19.70;72.10
36856;DHT22;22788;51.434;6.786;2022-07-29T09:13:53;19.70;72.40
36856;DHT22;22788;51.434;6.786;2022-07-29T09:16:19;19.80;72.00
36856;DHT22;22788;51.434;6.786;2022-07-29T09:18:46;19.70;71.70
36856;DHT22;22788;51.434;6.786;2022-07-29T09:21:13;19.90;72.20
36856;DHT22;22788;51.434;6.786;2022-07-29T09:23:39;19.80;71.90
36856;DHT22;22788;51.434;6.786;2022-07-29T09:26:05;19.80;72.80
36856;DHT22;22788;51.434;6.786;2022-07-29T09:28:33;19.70;72.50
36856;DHT22;22788;51.434;6.786;2022-07-29T09:30:59;19.70;73.00
36856;DHT22;22788;51.434;6.786;2022-07-29T09:33:32;19.70;72.30
36856;DHT22;22788;51.434;6.786;2022-07-29T09:35:59;19.70;72.70
36856;DHT22;22788;51.434;6.786;2022-07-29T09:38:25;19.70;72.20
36856;DHT22;22788;51.434;6.786;2022-07-29T09:40:56;19.80;73.70
36856;DHT22;22788;51.434;6.786;2022-07-29T09:43:22;19.70;74.40
36856;DHT22;22788;51.434;6.786;2022-07-29T09:45:50;19.70;73.60
36856;DHT22;22788;51.434;6.786;2022-07-29T09:48:17;19.70;73.90
36856;DHT22;22788;51.434;6.786;2022-07-29T09:50:44;19.70;74.50
36856;DHT22;22788;51.434;6.786;2022-07-29T09:53:11;19.70;74.30
36856;DHT22;22788;51.434;6.786;2022-07-29T09:55:48;19.80;75.00
36856;DHT22;22788;51.434;6.786;2022-07-29T09:58:17;19.60;75.40
36856;DHT22;22788;51.434;6.786;2022-07-29T10:00:44;19.70;75.30
36856;DHT22;22788;51.434;6.786;2022-07-29T10:03:12;19.60;75.70
36856;DHT22;22788;51.434;6.786;2022-07-29T10:05:39;19.80;76.60
36856;DHT22;22788;51.434;6.786;2022-07-29T10:08:05;19.70;81.20
36856;DHT22;22788;51.434;6.786;2022-07-29T10:10:33;19.60;79.90
36856;DHT22;22788;51.434;6.786;2022-07-29T10:13:00;19.60;80.70
36856;DHT22;22788;51.434;6.786;2022-07-29T10:15:28;19.70;80.60
36856;DHT22;22788;51.434;6.786;2022-07-29T10:17:56;19.70;78.00
36856;DHT22;22788;51.434;6.786;2022-07-29T10:20:24;20.00;79.90
36856;DHT22;22788;51.434;6.786;2022-07-29T10:48:04;20.30;83.10
36856;DHT22;22788;51.434;6.786;2022-07-29T10:53:18;20.40;71.60
36856;DHT22;22788;51.434;6.786;2022-07-29T10:55:46;20.40;71.50
36856;DHT22;22788;51.434;6.786;2022-07-29T10:58:14;20.50;71.60
36856;DHT22;22788;51.434;6.786;2022-07-29T11:00:41;20.60;72.20
36856;DHT22;22788;51.434;6.786;2022-07-29T11:03:07;20.70;71.50
36856;DHT22;22788;51.434;6.786;2022-07-29T11:05:51;20.80;70.90
36856;DHT22;22788;51.434;6.786;2022-07-29T11:08:21;20.90;70.80
36856;DHT22;22788;51.434;6.786;2022-07-29T11:10:49;21.00;71.00
36856;DHT22;22788;51.434;6.786;2022-07-29T11:13:47;21.10;70.00
36856;DHT22;22788;51.434;6.786;2022-07-29T11:16:14;21.20;69.60
36856;DHT22;22788;51.434;6.786;2022-07-29T11:21:41;21.30;68.20
36856;DHT22;22788;51.434;6.786;2022-07-29T11:24:14;21.40;67.60
36856;DHT22;22788;51.434;6.786;2022-07-29T11:31:44;21.60;66.30
36856;DHT22;22788;51.434;6.786;2022-07-29T11:34:22;21.60;66.20
36856;DHT22;22788;51.434;6.786;2022-07-29T11:37:15;21.60;65.80
36856;DHT22;22788;51.434;6.786;2022-07-29T11:39:43;21.70;65.80
36856;DHT22;22788;51.434;6.786;2022-07-29T11:42:39;21.90;69.70
36856;DHT22;22788;51.434;6.786;2022-07-29T11:45:07;22.00;70.00
36856;DHT22;22788;51.434;6.786;2022-07-29T11:47:35;22.00;70.70
36856;DHT22;22788;51.434;6.786;2022-07-29T11:50:03;21.90;70.80
36856;DHT22;22788;51.434;6.786;2022-07-29T11:52:32;22.00;72.20
36856;DHT22;22788;51.434;6.786;2022-07-29T11:55:01;22.00;72.80
36856;DHT22;22788;51.434;6.786;2022-07-29T11:57:28;22.00;74.60
36856;DHT22;22788;51.434;6.786;2022-07-29T11:59:57;22.00;75.60
36856;DHT22;22788;51.434;6.786;2022-07-29T12:02:23;21.90;76.50
36856;DHT22;22788;51.434;6.786;2022-07-29T12:04:50;21.90;75.50
36856;DHT22;22788;51.434;6.786;2022-07-29T12:07:17;21.80;75.30
